sensor_id;sensor_type;location;lat;lon;timestamp;P1;durP1;ratioP1;P2;durP2;ratioP2
27985;SDS011;15453;53.692;10.168;2022-08-16T04:09:31;11.75;;;8.20;;
27985;SDS011;15453;53.692;10.168;2022-08-16T04:11:58;10.10;;;9.10;;
27985;SDS011;15453;53.692;10.168;2022-08-16T04:14:23;9.70;;;8.55;;
27985;SDS011;15453;53.692;10.168;2022-08-16T04:16:49;10.57;;;9.52;;
27985;SDS011;15453;53.692;10.168;2022-08-16T04:19:14;11.23;;;10.02;;
27985;SDS011;15453;53.692;10.168;2022-08-16T04:21:39;12.60;;;10.13;;
27985;SDS011;15453;53.692;10.168;2022-08-16T04:24:04;14.20;;;10.77;;
27985;SDS011;15453;53.692;10.168;2022-08-16T04:26:30;10.25;;;9.25;;
27985;SDS011;15453;53.692;10.168;2022-08-16T04:28:55;12.38;;;10.32;;
27985;SDS011;15453;53.692;10.168;2022-08-16T04:31:21;10.90;;;9.80;;
27985;SDS011;15453;53.692;10.168;2022-08-16T04:33:47;11.15;;;9.93;;
27985;SDS011;15453;53.692;10.168;2022-08-16T04:36:13;11.02;;;9.82;;
27985;SDS011;15453;53.692;10.168;2022-08-16T04:38:38;10.07;;;9.05;;
27985;SDS011;15453;53.692;10.168;2022-08-16T04:41:03;13.18;;;9.68;;
27985;SDS011;15453;53.692;10.168;2022-08-16T04:43:28;12.50;;;10.18;;
27985;SDS011;15453;53.692;10.168;2022-08-16T04:45:54;11.82;;;9.43;;
27985;SDS011;15453;53.692;10.168;2022-08-16T04:48:20;11.82;;;10.63;;
27985;SDS011;15453;53.692;10.168;2022-08-16T04:50:45;11.50;;;10.00;;
27985;SDS011;15453;53.692;10.168;2022-08-16T04:53:11;10.73;;;9.65;;
27985;SDS011;15453;53.692;10.168;2022-08-16T04:55:37;13.20;;;11.80;;
27985;SDS011;15453;53.692;10.168;2022-08-16T04:58:02;10.90;;;9.77;;
27985;SDS011;15453;53.692;10.168;2022-08-16T05:00:29;11.93;;;10.15;;
27985;SDS011;15453;53.692;10.168;2022-08-16T05:02:57;10.73;;;9.63;;
27985;SDS011;15453;53.692;10.168;2022-08-16T05:05:25;11.20;;;9.75;;
27985;SDS011;15453;53.692;10.168;2022-08-16T05:07:51;11.18;;;10.10;;
27985;SDS011;15453;53.692;10.168;2022-08-16T05:10:16;14.40;;;10.88;;
27985;SDS011;15453;53.692;10.168;2022-08-16T05:12:42;13.48;;;11.40;;
27985;SDS011;15453;53.692;10.168;2022-08-16T05:15:07;12.48;;;11.18;;
27985;SDS011;15453;53.692;10.168;2022-08-16T05:17:34;11.57;;;9.98;;
27985;SDS011;15453;53.692;10.168;2022-08-16T05:19:59;12.52;;;11.23;;
27985;SDS011;15453;53.692;10.168;2022-08-16T05:22:25;11.57;;;10.38;;
27985;SDS011;15453;53.692;10.168;2022-08-16T05:24:51;10.68;;;9.68;;
27985;SDS011;15453;53.692;10.168;2022-08-16T05:27:16;12.77;;;11.48;;
27985;SDS011;15453;53.692;10.168;2022-08-16T05:29:41;13.05;;;10.88;;
27985;SDS011;15453;53.692;10.168;2022-08-16T05:32:07;12.68;;;11.27;;
27985;SDS011;15453;53.692;10.168;2022-08-16T05:34:32;13.85;;;11.45;;
27985;SDS011;15453;53.692;10.168;2022-08-16T05:36:58;14.30;;;11.60;;
27985;SDS011;15453;53.692;10.168;2022-08-16T05:39:23;11.80;;;10.43;;
27985;SDS011;15453;53.692;10.168;2022-08-16T05:41:49;11.23;;;10.13;;
27985;SDS011;15453;53.692;10.168;2022-08-16T05:44:15;12.40;;;10.27;;
27985;SDS011;15453;53.692;10.168;2022-08-16T05:46:41;14.32;;;12.30;;
27985;SDS011;15453;53.692;10.168;2022-08-16T05:49:09;13.80;;;11.60;;
27985;SDS011;15453;53.692;10.168;2022-08-16T05:51:35;13.75;;;12.27;;
27985;SDS011;15453;53.692;10.168;2022-08-16T05:54:01;15.25;;;11.43;;
27985;SDS011;15453;53.692;10.168;2022-08-16T05:56:26;12.40;;;11.10;;
27985;SDS011;15453;53.692;10.168;2022-08-16T05:58:51;15.05;;;12.15;;
27985;SDS011;15453;53.692;10.168;2022-08-16T06:01:16;13.73;;;12.07;;
27985;SDS011;15453;53.692;10.168;2022-08-16T06:03:42;14.82;;;11.82;;
27985;SDS011;15453;53.692;10.168;2022-08-16T06:06:07;13.23;;;11.77;;
27985;SDS011;15453;53.692;10.168;2022-08-16T06:08:32;13.05;;;11.57;;
27985;SDS011;15453;53.692;10.168;2022-08-16T06:10:57;12.60;;;11.20;;
27985;SDS011;15453;53.692;10.168;2022-08-16T06:13:23;15.93;;;12.50;;
27985;SDS011;15453;53.692;10.168;2022-08-16T06:15:48;12.90;;;11.48;;
27985;SDS011;15453;53.692;10.168;2022-08-16T06:18:16;15.95;;;13.63;;
27985;SDS011;15453;53.692;10.168;2022-08-16T06:20:41;13.82;;;12.18;;
27985;SDS011;15453;53.692;10.168;2022-08-16T06:23:07;14.63;;;12.25;;
27985;SDS011;15453;53.692;10.168;2022-08-16T06:25:32;13.80;;;12.30;;
27985;SDS011;15453;53.692;10.168;2022-08-16T06:27:58;13.73;;;11.90;;
27985;SDS011;15453;53.692;10.168;2022-08-16T06:30:23;16.35;;;12.90;;
27985;SDS011;15453;53.692;10.168;2022-08-16T06:32:48;14.15;;;12.43;;
27985;SDS011;15453;53.692;10.168;2022-08-16T06:35:13;15.18;;;12.45;;
27985;SDS011;15453;53.692;10.168;2022-08-16T06:37:39;14.57;;;12.68;;
27985;SDS011;15453;53.692;10.168;2022-08-16T06:40:05;16.38;;;13.80;;
27985;SDS011;15453;53.692;10.168;2022-08-16T06:42:32;15.13;;;13.13;;
27985;SDS011;15453;53.692;10.168;2022-08-16T06:44:57;15.20;;;12.80;;
27985;SDS011;15453;53.692;10.168;2022-08-16T06:47:22;16.92;;;13.20;;
27985;SDS011;15453;53.692;10.168;2022-08-16T06:49:48;16.00;;;12.70;;
27985;SDS011;15453;53.692;10.168;2022-08-16T06:52:13;15.00;;;12.65;;
27985;SDS011;15453;53.692;10.168;2022-08-16T06:54:38;14.23;;;12.32;;
27985;SDS011;15453;53.692;10.168;2022-08-16T06:57:04;13.90;;;11.32;;
27985;SDS011;15453;53.692;10.168;2022-08-16T06:59:30;15.85;;;13.38;;
27985;SDS011;15453;53.692;10.168;2022-08-16T07:01:56;15.27;;;12.98;;
27985;SDS011;15453;53.692;10.168;2022-08-16T07:04:21;15.80;;;13.23;;
27985;SDS011;15453;53.692;10.168;2022-08-16T07:06:46;12.73;;;11.43;;
27985;SDS011;15453;53.692;10.168;2022-08-16T07:09:12;14.77;;;12.15;;
27985;SDS011;15453;53.692;10.168;2022-08-16T07:11:37;12.50;;;11.20;;
27985;SDS011;15453;53.692;10.168;2022-08-16T07:14:03;16.05;;;13.57;;
27985;SDS011;15453;53.692;10.168;2022-08-16T07:16:29;13.90;;;10.75;;
27985;SDS011;15453;53.692;10.168;2022-08-16T07:18:54;13.90;;;12.50;;
27985;SDS011;15453;53.692;10.168;2022-08-16T07:21:21;12.27;;;11.02;;
27985;SDS011;15453;53.692;10.168;2022-08-16T07:23:46;13.73;;;10.40;;
27985;SDS011;15453;53.692;10.168;2022-08-16T07:26:21;12.80;;;9.93;;
27985;SDS011;15453;53.692;10.168;2022-08-16T07:28:49;12.35;;;10.82;;
27985;SDS011;15453;53.692;10.168;2022-08-16T07:31:15;16.60;;;11.18;;
27985;SDS011;15453;53.692;10.168;2022-08-16T07:33:41;10.60;;;8.90;;
27985;SDS011;15453;53.692;10.168;2022-08-16T07:36:08;10.98;;;9.77;;
27985;SDS011;15453;53.692;10.168;2022-08-16T07:38:34;11.38;;;9.40;;
27985;SDS011;15453;53.692;10.168;2022-08-16T07:40:59;14.13;;;10.95;;
27985;SDS011;15453;53.692;10.168;2022-08-16T07:43:25;12.85;;;10.30;;
27985;SDS011;15453;53.692;10.168;2022-08-16T07:45:52;14.02;;;9.02;;
27985;SDS011;15453;53.692;10.168;2022-08-16T07:48:17;12.00;;;9.48;;
27985;SDS011;15453;53.692;10.168;2022-08-16T07:50:43;13.82;;;10.60;;
27985;SDS011;15453;53.692;10.168;2022-08-16T07:53:09;12.68;;;9.65;;
27985;SDS011;15453;53.692;10.168;2022-08-16T07:55:34;14.00;;;7.05;;
27985;SDS011;15453;53.692;10.168;2022-08-16T07:58:01;13.13;;;7.50;;
27985;SDS011;15453;53.692;10.168;2022-08-16T08:00:27;9.40;;;7.25;;
27985;SDS011;15453;53.692;10.168;2022-08-16T08:02:52;11.45;;;6.35;;
27985;SDS011;15453;53.692;10.168;2022-08-16T08:05:19;10.40;;;6.88;;
27985;SDS011;15453;53.692;10.168;2022-08-16T08:07:46;13.63;;;6.78;;
27985;SDS011;15453;53.692;10.168;2022-08-16T08:10:11;9.93;;;6.87;;
27985;SDS011;15453;53.692;10.168;2022-08-16T08:12:36;9.98;;;6.65;;
27985;SDS011;15453;53.692;10.168;2022-08-16T08:15:06;10.30;;;6.85;;
27985;SDS011;15453;53.692;10.168;2022-08-16T08:17:33;9.25;;;6.55;;
27985;SDS011;15453;53.692;10.168;2022-08-16T08:20:02;7.95;;;6.03;;
27985;SDS011;15453;53.692;10.168;2022-08-16T08:22:28;6.53;;;5.22;;
27985;SDS011;15453;53.692;10.168;2022-08-16T08:24:54;7.38;;;4.72;;
27985;SDS011;15453;53.692;10.168;2022-08-16T08:27:19;6.95;;;4.80;;
27985;SDS011;15453;53.692;10.168;2022-08-16T08:29:45;7.90;;;5.55;;
27985;SDS011;15453;53.692;10.168;2022-08-16T08:32:11;6.88;;;4.57;;
27985;SDS011;15453;53.692;10.168;2022-08-16T08:34:36;8.32;;;4.60;;
27985;SDS011;15453;53.692;10.168;2022-08-16T08:37:01;7.65;;;4.20;;
27985;SDS011;15453;53.692;10.168;2022-08-16T08:39:26;6.15;;;3.97;;
27985;SDS011;15453;53.692;10.168;2022-08-16T08:41:52;7.88;;;3.75;;
27985;SDS011;15453;53.692;10.168;2022-08-16T08:44:18;4.25;;;3.63;;
27985;SDS011;15453;53.692;10.168;2022-08-16T08:46:44;7.57;;;4.70;;
27985;SDS011;15453;53.692;10.168;2022-08-16T08:49:10;7.93;;;4.40;;
27985;SDS011;15453;53.692;10.168;2022-08-16T08:51:35;5.73;;;4.00;;
27985;SDS011;15453;53.692;10.168;2022-08-16T08:54:05;6.05;;;3.85;;
27985;SDS011;15453;53.692;10.168;2022-08-16T08:56:33;4.85;;;4.15;;
27985;SDS011;15453;53.692;10.168;2022-08-16T08:59:01;8.32;;;5.00;;
27985;SDS011;15453;53.692;10.168;2022-08-16T09:01:28;6.00;;;4.40;;
27985;SDS011;15453;53.692;10.168;2022-08-16T09:06:22;9.07;;;4.50;;
27985;SDS011;15453;53.692;10.168;2022-08-16T09:08:47;10.65;;;4.78;;
27985;SDS011;15453;53.692;10.168;2022-08-16T09:11:12;6.07;;;4.65;;
27985;SDS011;15453;53.692;10.168;2022-08-16T09:13:38;7.10;;;4.38;;
27985;SDS011;15453;53.692;10.168;2022-08-16T09:16:04;6.30;;;4.88;;
27985;SDS011;15453;53.692;10.168;2022-08-16T09:18:29;6.13;;;5.07;;
27985;SDS011;15453;53.692;10.168;2022-08-16T09:20:55;6.20;;;4.88;;
27985;SDS011;15453;53.692;10.168;2022-08-16T09:23:21;8.68;;;4.78;;
27985;SDS011;15453;53.692;10.168;2022-08-16T09:25:48;7.70;;;4.93;;
27985;SDS011;15453;53.692;10.168;2022-08-16T09:28:13;7.55;;;4.90;;
27985;SDS011;15453;53.692;10.168;2022-08-16T09:30:39;9.65;;;5.97;;
27985;SDS011;15453;53.692;10.168;2022-08-16T09:33:05;7.45;;;5.13;;
27985;SDS011;15453;53.692;10.168;2022-08-16T09:35:31;6.68;;;4.85;;
27985;SDS011;15453;53.692;10.168;2022-08-16T09:37:57;7.10;;;4.45;;
27985;SDS011;15453;53.692;10.168;2022-08-16T09:40:22;8.20;;;5.45;;
27985;SDS011;15453;53.692;10.168;2022-08-16T09:42:48;8.13;;;4.90;;
27985;SDS011;15453;53.692;10.168;2022-08-16T09:45:14;6.07;;;4.50;;
27985;SDS011;15453;53.692;10.168;2022-08-16T09:47:40;5.68;;;4.32;;
27985;SDS011;15453;53.692;10.168;2022-08-16T09:50:07;8.45;;;4.93;;
27985;SDS011;15453;53.692;10.168;2022-08-16T09:52:34;6.00;;;4.55;;
27985;SDS011;15453;53.692;10.168;2022-08-16T09:55:02;8.10;;;5.90;;
27985;SDS011;15453;53.692;10.168;2022-08-16T09:57:29;10.00;;;6.13;;
27985;SDS011;15453;53.692;10.168;2022-08-16T09:59:55;9.80;;;5.93;;
27985;SDS011;15453;53.692;10.168;2022-08-16T10:02:20;7.07;;;4.47;;
27985;SDS011;15453;53.692;10.168;2022-08-16T10:04:46;7.13;;;5.03;;
27985;SDS011;15453;53.692;10.168;2022-08-16T10:07:11;6.23;;;4.87;;
27985;SDS011;15453;53.692;10.168;2022-08-16T10:09:36;7.07;;;5.13;;
27985;SDS011;15453;53.692;10.168;2022-08-16T10:12:01;4.80;;;3.93;;
27985;SDS011;15453;53.692;10.168;2022-08-16T10:14:45;6.93;;;4.80;;
27985;SDS011;15453;53.692;10.168;2022-08-16T10:17:11;8.83;;;5.20;;
27985;SDS011;15453;53.692;10.168;2022-08-16T10:19:36;7.45;;;5.60;;
27985;SDS011;15453;53.692;10.168;2022-08-16T10:22:01;6.85;;;4.95;;
27985;SDS011;15453;53.692;10.168;2022-08-16T10:24:27;7.95;;;4.90;;
27985;SDS011;15453;53.692;10.168;2022-08-16T10:26:52;10.37;;;5.30;;
27985;SDS011;15453;53.692;10.168;2022-08-16T10:29:18;5.22;;;4.45;;
27985;SDS011;15453;53.692;10.168;2022-08-16T10:31:43;9.65;;;4.90;;
27985;SDS011;15453;53.692;10.168;2022-08-16T10:34:09;7.53;;;4.28;;
27985;SDS011;15453;53.692;10.168;2022-08-16T10:36:34;7.38;;;4.88;;
27985;SDS011;15453;53.692;10.168;2022-08-16T10:38:59;4.93;;;3.97;;
27985;SDS011;15453;53.692;10.168;2022-08-16T10:41:25;5.43;;;3.92;;
27985;SDS011;15453;53.692;10.168;2022-08-16T10:43:50;8.23;;;4.15;;
27985;SDS011;15453;53.692;10.168;2022-08-16T10:46:16;8.25;;;4.22;;
27985;SDS011;15453;53.692;10.168;2022-08-16T10:48:43;4.70;;;3.70;;
27985;SDS011;15453;53.692;10.168;2022-08-16T10:51:09;6.20;;;3.80;;
27985;SDS011;15453;53.692;10.168;2022-08-16T10:53:36;5.18;;;4.05;;
27985;SDS011;15453;53.692;10.168;2022-08-16T10:56:06;7.15;;;3.83;;
27985;SDS011;15453;53.692;10.168;2022-08-16T10:58:34;4.63;;;3.78;;
27985;SDS011;15453;53.692;10.168;2022-08-16T11:01:02;17.13;;;11.90;;
27985;SDS011;15453;53.692;10.168;2022-08-16T11:03:29;11.45;;;7.68;;
27985;SDS011;15453;53.692;10.168;2022-08-16T11:05:54;10.95;;;6.18;;
27985;SDS011;15453;53.692;10.168;2022-08-16T11:08:20;6.50;;;4.68;;
27985;SDS011;15453;53.692;10.168;2022-08-16T11:10:46;7.20;;;4.03;;
27985;SDS011;15453;53.692;10.168;2022-08-16T11:13:13;9.45;;;4.40;;
27985;SDS011;15453;53.692;10.168;2022-08-16T11:15:41;7.03;;;4.35;;
27985;SDS011;15453;53.692;10.168;2022-08-16T11:18:08;4.80;;;3.72;;
27985;SDS011;15453;53.692;10.168;2022-08-16T11:20:34;5.80;;;4.28;;
27985;SDS011;15453;53.692;10.168;2022-08-16T11:22:59;6.60;;;4.07;;
27985;SDS011;15453;53.692;10.168;2022-08-16T11:25:26;4.80;;;3.60;;
27985;SDS011;15453;53.692;10.168;2022-08-16T11:27:54;7.28;;;3.85;;
27985;SDS011;15453;53.692;10.168;2022-08-16T11:30:20;6.72;;;4.07;;
27985;SDS011;15453;53.692;10.168;2022-08-16T11:32:46;7.78;;;4.40;;
27985;SDS011;15453;53.692;10.168;2022-08-16T11:35:22;4.93;;;4.23;;
27985;SDS011;15453;53.692;10.168;2022-08-16T11:38:01;7.73;;;3.93;;
27985;SDS011;15453;53.692;10.168;2022-08-16T11:40:30;8.80;;;4.55;;
27985;SDS011;15453;53.692;10.168;2022-08-16T11:43:02;5.90;;;4.22;;
27985;SDS011;15453;53.692;10.168;2022-08-16T11:45:27;4.65;;;4.15;;
27985;SDS011;15453;53.692;10.168;2022-08-16T11:47:53;5.18;;;4.43;;
27985;SDS011;15453;53.692;10.168;2022-08-16T11:50:19;6.00;;;4.20;;
27985;SDS011;15453;53.692;10.168;2022-08-16T11:52:45;4.82;;;4.15;;
27985;SDS011;15453;53.692;10.168;2022-08-16T11:55:11;6.57;;;4.78;;
27985;SDS011;15453;53.692;10.168;2022-08-16T11:57:37;5.63;;;3.83;;
27985;SDS011;15453;53.692;10.168;2022-08-16T12:00:08;6.72;;;4.20;;
27985;SDS011;15453;53.692;10.168;2022-08-16T12:02:36;6.72;;;4.30;;
27985;SDS011;15453;53.692;10.168;2022-08-16T12:05:03;6.60;;;4.20;;
27985;SDS011;15453;53.692;10.168;2022-08-16T12:07:30;7.45;;;4.72;;
27985;SDS011;15453;53.692;10.168;2022-08-16T12:09:55;7.90;;;4.68;;
27985;SDS011;15453;53.692;10.168;2022-08-16T12:12:21;8.98;;;4.15;;
27985;SDS011;15453;53.692;10.168;2022-08-16T12:14:46;7.25;;;4.40;;
27985;SDS011;15453;53.692;10.168;2022-08-16T12:17:12;7.10;;;4.80;;
27985;SDS011;15453;53.692;10.168;2022-08-16T12:19:38;9.57;;;4.93;;
27985;SDS011;15453;53.692;10.168;2022-08-16T12:22:04;5.70;;;3.85;;
27985;SDS011;15453;53.692;10.168;2022-08-16T12:24:30;6.55;;;4.32;;
27985;SDS011;15453;53.692;10.168;2022-08-16T12:26:55;8.37;;;4.77;;
27985;SDS011;15453;53.692;10.168;2022-08-16T12:29:21;8.20;;;4.97;;
27985;SDS011;15453;53.692;10.168;2022-08-16T12:31:47;7.55;;;5.60;;
27985;SDS011;15453;53.692;10.168;2022-08-16T12:34:14;6.50;;;5.32;;
27985;SDS011;15453;53.692;10.168;2022-08-16T12:36:39;7.20;;;5.03;;
27985;SDS011;15453;53.692;10.168;2022-08-16T12:39:05;8.30;;;4.40;;
27985;SDS011;15453;53.692;10.168;2022-08-16T12:41:31;7.18;;;4.32;;
27985;SDS011;15453;53.692;10.168;2022-08-16T12:43:57;5.43;;;4.47;;
27985;SDS011;15453;53.692;10.168;2022-08-16T12:46:23;8.38;;;4.78;;
27985;SDS011;15453;53.692;10.168;2022-08-16T12:48:49;6.43;;;4.15;;
27985;SDS011;15453;53.692;10.168;2022-08-16T12:51:26;6.15;;;4.15;;
27985;SDS011;15453;53.692;10.168;2022-08-16T12:53:56;4.68;;;3.63;;
27985;SDS011;15453;53.692;10.168;2022-08-16T12:56:24;4.10;;;3.70;;
27985;SDS011;15453;53.692;10.168;2022-08-16T12:58:52;7.25;;;3.88;;
27985;SDS011;15453;53.692;10.168;2022-08-16T13:01:20;4.85;;;3.88;;
27985;SDS011;15453;53.692;10.168;2022-08-16T13:03:46;4.80;;;3.85;;
27985;SDS011;15453;53.692;10.168;2022-08-16T13:06:13;4.95;;;3.90;;
27985;SDS011;15453;53.692;10.168;2022-08-16T13:08:39;4.70;;;3.60;;
27985;SDS011;15453;53.692;10.168;2022-08-16T13:11:05;6.30;;;3.90;;
27985;SDS011;15453;53.692;10.168;2022-08-16T13:13:31;5.70;;;3.78;;
27985;SDS011;15453;53.692;10.168;2022-08-16T13:15:59;7.25;;;3.63;;
27985;SDS011;15453;53.692;10.168;2022-08-16T13:18:27;4.95;;;3.70;;
27985;SDS011;15453;53.692;10.168;2022-08-16T13:20:53;5.25;;;3.88;;
27985;SDS011;15453;53.692;10.168;2022-08-16T13:23:19;4.10;;;3.42;;
27985;SDS011;15453;53.692;10.168;2022-08-16T13:25:45;5.80;;;3.60;;
27985;SDS011;15453;53.692;10.168;2022-08-16T13:28:12;6.60;;;4.05;;
27985;SDS011;15453;53.692;10.168;2022-08-16T13:30:40;5.47;;;4.10;;
27985;SDS011;15453;53.692;10.168;2022-08-16T13:33:11;6.70;;;4.40;;
27985;SDS011;15453;53.692;10.168;2022-08-16T13:35:38;5.57;;;4.47;;
27985;SDS011;15453;53.692;10.168;2022-08-16T13:38:04;8.80;;;5.28;;
27985;SDS011;15453;53.692;10.168;2022-08-16T13:40:29;8.07;;;4.80;;
27985;SDS011;15453;53.692;10.168;2022-08-16T13:42:55;7.90;;;4.70;;
27985;SDS011;15453;53.692;10.168;2022-08-16T13:45:20;11.02;;;7.57;;
27985;SDS011;15453;53.692;10.168;2022-08-16T13:47:46;8.10;;;5.47;;
27985;SDS011;15453;53.692;10.168;2022-08-16T13:50:12;6.50;;;4.57;;
27985;SDS011;15453;53.692;10.168;2022-08-16T13:52:39;5.70;;;4.50;;
27985;SDS011;15453;53.692;10.168;2022-08-16T13:55:05;6.70;;;4.55;;
27985;SDS011;15453;53.692;10.168;2022-08-16T13:57:31;5.97;;;4.65;;
27985;SDS011;15453;53.692;10.168;2022-08-16T13:59:57;6.93;;;3.90;;
27985;SDS011;15453;53.692;10.168;2022-08-16T14:02:22;5.83;;;3.67;;
27985;SDS011;15453;53.692;10.168;2022-08-16T14:04:47;9.38;;;4.00;;
27985;SDS011;15453;53.692;10.168;2022-08-16T14:07:14;4.22;;;3.78;;
27985;SDS011;15453;53.692;10.168;2022-08-16T14:09:40;6.65;;;3.15;;
27985;SDS011;15453;53.692;10.168;2022-08-16T14:12:18;3.78;;;3.15;;
27985;SDS011;15453;53.692;10.168;2022-08-16T14:14:48;3.30;;;2.97;;
27985;SDS011;15453;53.692;10.168;2022-08-16T14:17:15;7.60;;;3.83;;
27985;SDS011;15453;53.692;10.168;2022-08-16T14:19:41;5.55;;;3.30;;
27985;SDS011;15453;53.692;10.168;2022-08-16T14:22:06;4.10;;;3.08;;
27985;SDS011;15453;53.692;10.168;2022-08-16T14:24:31;8.20;;;3.75;;
27985;SDS011;15453;53.692;10.168;2022-08-16T14:26:56;9.87;;;3.77;;
27985;SDS011;15453;53.692;10.168;2022-08-16T14:29:22;5.53;;;3.33;;
27985;SDS011;15453;53.692;10.168;2022-08-16T14:31:47;4.23;;;3.10;;
27985;SDS011;15453;53.692;10.168;2022-08-16T14:34:13;3.83;;;3.22;;
27985;SDS011;15453;53.692;10.168;2022-08-16T14:36:38;4.67;;;3.40;;
27985;SDS011;15453;53.692;10.168;2022-08-16T14:39:03;5.20;;;3.50;;
27985;SDS011;15453;53.692;10.168;2022-08-16T14:41:29;7.05;;;4.32;;
27985;SDS011;15453;53.692;10.168;2022-08-16T14:43:54;5.88;;;4.05;;
27985;SDS011;15453;53.692;10.168;2022-08-16T14:46:21;6.85;;;3.78;;
27985;SDS011;15453;53.692;10.168;2022-08-16T14:48:46;6.33;;;3.33;;
27985;SDS011;15453;53.692;10.168;2022-08-16T14:51:11;4.77;;;3.17;;
27985;SDS011;15453;53.692;10.168;2022-08-16T14:53:37;3.73;;;2.73;;
27985;SDS011;15453;53.692;10.168;2022-08-16T14:56:02;4.50;;;3.05;;
27985;SDS011;15453;53.692;10.168;2022-08-16T14:58:28;4.57;;;2.92;;
27985;SDS011;15453;53.692;10.168;2022-08-16T15:00:53;4.43;;;3.08;;
27985;SDS011;15453;53.692;10.168;2022-08-16T15:03:21;6.25;;;3.60;;
27985;SDS011;15453;53.692;10.168;2022-08-16T15:05:47;9.13;;;4.50;;
27985;SDS011;15453;53.692;10.168;2022-08-16T15:08:13;10.90;;;7.88;;
27985;SDS011;15453;53.692;10.168;2022-08-16T15:10:41;8.52;;;5.63;;
27985;SDS011;15453;53.692;10.168;2022-08-16T15:13:06;5.55;;;4.40;;
27985;SDS011;15453;53.692;10.168;2022-08-16T15:15:32;5.45;;;3.88;;
27985;SDS011;15453;53.692;10.168;2022-08-16T15:17:58;5.43;;;3.83;;
27985;SDS011;15453;53.692;10.168;2022-08-16T15:20:26;8.68;;;3.55;;
27985;SDS011;15453;53.692;10.168;2022-08-16T15:22:53;3.72;;;2.80;;
27985;SDS011;15453;53.692;10.168;2022-08-16T15:25:21;7.20;;;3.50;;
27985;SDS011;15453;53.692;10.168;2022-08-16T15:27:49;4.03;;;2.90;;
27985;SDS011;15453;53.692;10.168;2022-08-16T15:30:17;4.63;;;3.53;;
27985;SDS011;15453;53.692;10.168;2022-08-16T15:32:45;6.03;;;3.95;;
27985;SDS011;15453;53.692;10.168;2022-08-16T15:35:11;5.93;;;3.75;;
27985;SDS011;15453;53.692;10.168;2022-08-16T15:37:37;7.78;;;3.60;;
27985;SDS011;15453;53.692;10.168;2022-08-16T15:40:03;5.28;;;3.67;;
27985;SDS011;15453;53.692;10.168;2022-08-16T15:42:31;5.60;;;3.35;;
27985;SDS011;15453;53.692;10.168;2022-08-16T15:44:56;5.20;;;3.40;;
27985;SDS011;15453;53.692;10.168;2022-08-16T15:47:21;4.30;;;2.83;;
27985;SDS011;15453;53.692;10.168;2022-08-16T15:49:49;4.35;;;3.30;;
27985;SDS011;15453;53.692;10.168;2022-08-16T15:52:16;4.27;;;3.10;;
27985;SDS011;15453;53.692;10.168;2022-08-16T15:54:43;4.35;;;3.33;;
27985;SDS011;15453;53.692;10.168;2022-08-16T15:57:10;6.43;;;4.32;;
27985;SDS011;15453;53.692;10.168;2022-08-16T15:59:35;7.22;;;3.88;;
27985;SDS011;15453;53.692;10.168;2022-08-16T16:02:01;5.60;;;3.47;;
27985;SDS011;15453;53.692;10.168;2022-08-16T16:04:26;5.10;;;3.30;;
27985;SDS011;15453;53.692;10.168;2022-08-16T16:09:21;9.50;;;4.68;;
27985;SDS011;15453;53.692;10.168;2022-08-16T16:11:46;8.60;;;4.53;;
27985;SDS011;15453;53.692;10.168;2022-08-16T16:14:12;5.93;;;4.00;;
27985;SDS011;15453;53.692;10.168;2022-08-16T16:16:40;3.88;;;3.42;;
27985;SDS011;15453;53.692;10.168;2022-08-16T16:19:06;10.85;;;3.30;;
27985;SDS011;15453;53.692;10.168;2022-08-16T16:21:32;3.83;;;3.33;;
27985;SDS011;15453;53.692;10.168;2022-08-16T16:23:58;4.63;;;3.50;;
27985;SDS011;15453;53.692;10.168;2022-08-16T16:26:24;4.07;;;3.05;;
27985;SDS011;15453;53.692;10.168;2022-08-16T16:28:49;4.07;;;3.00;;
27985;SDS011;15453;53.692;10.168;2022-08-16T16:31:16;4.38;;;3.00;;
27985;SDS011;15453;53.692;10.168;2022-08-16T16:33:44;4.82;;;3.00;;
27985;SDS011;15453;53.692;10.168;2022-08-16T16:36:13;4.90;;;2.80;;
27985;SDS011;15453;53.692;10.168;2022-08-16T16:38:41;3.00;;;2.70;;
27985;SDS011;15453;53.692;10.168;2022-08-16T16:41:12;6.20;;;2.92;;
27985;SDS011;15453;53.692;10.168;2022-08-16T16:43:39;5.30;;;3.67;;
27985;SDS011;15453;53.692;10.168;2022-08-16T16:46:05;13.50;;;11.98;;
27985;SDS011;15453;53.692;10.168;2022-08-16T16:48:32;17.35;;;10.63;;
27985;SDS011;15453;53.692;10.168;2022-08-16T16:50:59;20.15;;;14.60;;
27985;SDS011;15453;53.692;10.168;2022-08-16T16:53:24;6.50;;;5.38;;
27985;SDS011;15453;53.692;10.168;2022-08-16T16:55:51;4.88;;;3.95;;
27985;SDS011;15453;53.692;10.168;2022-08-16T16:58:17;4.07;;;3.38;;
27985;SDS011;15453;53.692;10.168;2022-08-16T17:01:02;3.90;;;3.10;;
27985;SDS011;15453;53.692;10.168;2022-08-16T17:03:28;5.70;;;2.88;;
27985;SDS011;15453;53.692;10.168;2022-08-16T17:05:54;5.93;;;3.50;;
27985;SDS011;15453;53.692;10.168;2022-08-16T17:08:20;3.40;;;2.70;;
27985;SDS011;15453;53.692;10.168;2022-08-16T17:10:48;3.78;;;3.05;;
27985;SDS011;15453;53.692;10.168;2022-08-16T17:13:14;5.13;;;3.20;;
27985;SDS011;15453;53.692;10.168;2022-08-16T17:15:39;4.20;;;3.10;;
27985;SDS011;15453;53.692;10.168;2022-08-16T17:18:05;6.85;;;3.10;;
27985;SDS011;15453;53.692;10.168;2022-08-16T17:20:30;5.17;;;3.07;;
27985;SDS011;15453;53.692;10.168;2022-08-16T17:22:55;4.33;;;2.90;;
27985;SDS011;15453;53.692;10.168;2022-08-16T17:25:22;4.45;;;3.38;;
27985;SDS011;15453;53.692;10.168;2022-08-16T17:27:49;4.15;;;3.15;;
27985;SDS011;15453;53.692;10.168;2022-08-16T17:30:16;4.10;;;2.97;;
27985;SDS011;15453;53.692;10.168;2022-08-16T17:32:45;6.82;;;3.33;;
27985;SDS011;15453;53.692;10.168;2022-08-16T17:35:15;5.43;;;3.17;;
27985;SDS011;15453;53.692;10.168;2022-08-16T17:37:42;6.05;;;3.78;;
27985;SDS011;15453;53.692;10.168;2022-08-16T17:40:08;5.60;;;4.00;;
27985;SDS011;15453;53.692;10.168;2022-08-16T17:42:35;6.07;;;3.83;;
27985;SDS011;15453;53.692;10.168;2022-08-16T17:45:00;6.80;;;4.30;;
27985;SDS011;15453;53.692;10.168;2022-08-16T17:47:25;5.40;;;4.90;;
27985;SDS011;15453;53.692;10.168;2022-08-16T17:49:51;5.22;;;4.70;;
27985;SDS011;15453;53.692;10.168;2022-08-16T17:52:16;6.13;;;5.00;;
27985;SDS011;15453;53.692;10.168;2022-08-16T17:54:42;7.65;;;5.55;;
27985;SDS011;15453;53.692;10.168;2022-08-16T17:57:08;6.50;;;4.88;;
27985;SDS011;15453;53.692;10.168;2022-08-16T17:59:33;6.78;;;4.97;;
27985;SDS011;15453;53.692;10.168;2022-08-16T18:01:59;4.93;;;4.13;;
27985;SDS011;15453;53.692;10.168;2022-08-16T18:04:24;5.82;;;3.83;;
27985;SDS011;15453;53.692;10.168;2022-08-16T18:06:50;6.55;;;3.63;;
27985;SDS011;15453;53.692;10.168;2022-08-16T18:09:18;4.68;;;3.78;;
27985;SDS011;15453;53.692;10.168;2022-08-16T18:11:43;4.95;;;3.58;;
27985;SDS011;15453;53.692;10.168;2022-08-16T18:14:09;5.05;;;3.88;;
27985;SDS011;15453;53.692;10.168;2022-08-16T18:16:35;5.53;;;4.00;;
27985;SDS011;15453;53.692;10.168;2022-08-16T18:19:01;4.78;;;3.83;;
27985;SDS011;15453;53.692;10.168;2022-08-16T18:21:26;8.50;;;4.65;;
27985;SDS011;15453;53.692;10.168;2022-08-16T18:24:11;9.05;;;4.53;;
27985;SDS011;15453;53.692;10.168;2022-08-16T18:26:39;5.43;;;3.55;;
27985;SDS011;15453;53.692;10.168;2022-08-16T18:29:05;5.57;;;3.75;;
27985;SDS011;15453;53.692;10.168;2022-08-16T18:31:30;7.90;;;3.92;;
27985;SDS011;15453;53.692;10.168;2022-08-16T18:33:56;5.70;;;3.90;;
27985;SDS011;15453;53.692;10.168;2022-08-16T18:36:21;9.27;;;4.28;;